Capo Vado — IPWV — position and weather

sailwx.info

Track history (hours):
 
Tides and Currents Weather Stations Pressure Air Temp Water Temp Dewpoint Dewpoint Depression Visibility Wind Speed Wind Dir Waves Ship Positions

Capo Vado

Last reported at 2014-Sep-17 00:19 UTC. Time now 2014-Sep-17 01:32 UTC.
Position N 44°18' E 008°29'.

Length 30 m.

Type: Tug. MMSI: 247228400.

Date/timePositionNaut miles runAvg speedWind from/ knotsBaromVisibWave heightAir tempDewpointWater temp
2014-Sep-17 00:19N 44°18' E 008°29'0 0.0
2014-Sep-16 23:16N 44°18' E 008°29'0 0.0
2014-Sep-16 22:22N 44°18' E 008°29'0 0.0
2014-Sep-16 19:25N 44°18' E 008°29'0 0.0
2014-Sep-16 18:25N 44°18' E 008°29'0 0.0
2014-Sep-16 17:19N 44°18' E 008°29'0 0.0
2014-Sep-16 15:22N 44°18' E 008°29'0 0.0
2014-Sep-16 14:22N 44°18' E 008°29'0 0.0
2014-Sep-16 11:28N 44°18' E 008°29'0 0.0
2014-Sep-16 10:31N 44°18' E 008°29'0 0.0
2014-Sep-16 07:10N 44°18' E 008°29'0 0.0
2014-Sep-16 06:28N 44°18' E 008°29'0 0.0
2014-Sep-16 03:31N 44°18' E 008°29'0 0.0
2014-Sep-16 02:16N 44°18' E 008°29'0 0.0
2014-Sep-16 01:28N 44°18' E 008°29'0 0.0
2014-Sep-16 00:31N 44°18' E 008°29'0 0.0
2014-Sep-15 23:22N 44°18' E 008°29'0 0.0
2014-Sep-15 22:31N 44°18' E 008°29'0 0.0
2014-Sep-15 19:31N 44°18' E 008°29'0 0.0
2014-Sep-15 18:19N 44°18' E 008°29'0 0.0
2014-Sep-15 09:25N 44°18' E 008°29'0 0.0
2014-Sep-15 08:29N 44°18' E 008°29'2 2.0
2014-Sep-15 07:14N 44°16' E 008°28'1 1.0
2014-Sep-15 06:29N 44°16' E 008°29'3 2.9
2014-Sep-15 05:33N 44°19' E 008°31'0 0.4
2014-Sep-15 04:28N 44°19' E 008°30'1 0.9
2014-Sep-15 03:27N 44°18' E 008°29'0 0.0
2014-Sep-15 02:30N 44°18' E 008°29'0 0.0
2014-Sep-15 01:33N 44°18' E 008°29'0 0.0
2014-Sep-15 00:33N 44°18' E 008°29'0 0.0
2014-Sep-14 23:30N 44°18' E 008°29'0 0.0
2014-Sep-14 22:24N 44°18' E 008°29'0 0.0
2014-Sep-14 19:15N 44°18' E 008°29'0 0.0
2014-Sep-14 18:24N 44°18' E 008°29'0 0.0
2014-Sep-14 17:21N 44°18' E 008°29'0 0.0
2014-Sep-14 15:12N 44°18' E 008°29'0 0.0
2014-Sep-14 14:33N 44°18' E 008°29'0 0.0
2014-Sep-14 11:30N 44°18' E 008°29'0 0.0
2014-Sep-14 07:33N 44°18' E 008°29'0 0.0
2014-Sep-14 04:06N 44°18' E 008°29'0 0.0
2014-Sep-14 02:33N 44°18' E 008°29'0 0.0
2014-Sep-14 01:21N 44°18' E 008°29'0 0.0
2014-Sep-13 16:09N 44°18' E 008°29'0 0.0
2014-Sep-13 15:30N 44°18' E 008°29'0 0.0
2014-Sep-13 07:21N 44°18' E 008°29'0 0.0
2014-Sep-13 03:15N 44°18' E 008°29'0 0.0
2014-Sep-13 02:30N 44°18' E 008°29'0 0.0
2014-Sep-13 01:21N 44°18' E 008°29'0 0.0
2014-Sep-13 00:30N 44°18' E 008°29'0 0.0
2014-Sep-12 23:21N 44°18' E 008°29'1 0.1
2014-Sep-12 13:19N 44°19' E 008°30'3 2.7
2014-Sep-12 12:14N 44°17' E 008°28'1 1.5
2014-Sep-12 11:32N 44°17' E 008°29'1 0.3
2014-Sep-12 07:08N 44°18' E 008°29'1 0.4
2014-Sep-12 05:16N 44°19' E 008°30'1 0.3
2014-Sep-12 02:26N 44°18' E 008°29'0 0.0
2014-Sep-12 01:26N 44°18' E 008°29'0 0.0
2014-Sep-12 00:26N 44°18' E 008°29'0 0.0
2014-Sep-11 23:20N 44°18' E 008°29'0 0.0
2014-Sep-11 22:32N 44°18' E 008°29'0 0.0
2014-Sep-11 19:26N 44°18' E 008°29'0 0.0
2014-Sep-11 18:32N 44°18' E 008°29'0 0.0
2014-Sep-11 15:20N 44°18' E 008°29'0 0.0
2014-Sep-11 14:14N 44°18' E 008°29'0 0.0
2014-Sep-11 11:32N 44°18' E 008°29'0 0.0
2014-Sep-11 10:32N 44°18' E 008°29'1 0.3
2014-Sep-11 07:33N 44°19' E 008°30'3 2.8
2014-Sep-11 06:26N 44°16' E 008°28'2 0.5
2014-Sep-11 01:29N 44°18' E 008°29'0 0.0
2014-Sep-11 00:23N 44°18' E 008°29'0 0.0
2014-Sep-10 23:29N 44°18' E 008°29'0 0.0
2014-Sep-10 22:29N 44°18' E 008°29'0 0.0
2014-Sep-10 19:14N 44°18' E 008°29'0 0.0
2014-Sep-10 07:29N 44°18' E 008°29'0 0.0
2014-Sep-10 03:29N 44°18' E 008°29'0 0.0
2014-Sep-10 02:29N 44°18' E 008°29'0 0.0
2014-Sep-10 01:11N 44°18' E 008°29'0 0.0
2014-Sep-10 00:29N 44°18' E 008°29'0 0.0
2014-Sep-09 19:23N 44°18' E 008°29'0 0.0
2014-Sep-09 18:17N 44°18' E 008°29'0 0.0
2014-Sep-09 11:11N 44°18' E 008°29'0 0.0
2014-Sep-09 10:29N 44°18' E 008°29'0 0.0
2014-Sep-09 08:05N 44°18' E 008°29'0 0.0
2014-Sep-09 07:08N 44°18' E 008°29'0 0.0
2014-Sep-09 03:29N 44°18' E 008°29'0 0.0
2014-Sep-09 02:23N 44°18' E 008°29'0 0.0
2014-Sep-09 01:11N 44°18' E 008°29'0 0.0
2014-Sep-09 00:29N 44°18' E 008°29'0 0.0
2014-Sep-08 23:32N 44°18' E 008°29'0 0.0
2014-Sep-08 22:20N 44°18' E 008°29'0 0.0
2014-Sep-08 20:32N 44°18' E 008°29'0 0.0
2014-Sep-08 19:32N 44°18' E 008°29'0 0.0
2014-Sep-08 18:05N 44°18' E 008°29'0 0.0
2014-Sep-08 16:17N 44°18' E 008°29'0 0.0
2014-Sep-08 15:11N 44°18' E 008°29'0 0.0
2014-Sep-08 14:29N 44°18' E 008°29'0 0.0
2014-Sep-08 11:17N 44°18' E 008°29'0 0.0
2014-Sep-08 06:08N 44°18' E 008°29'0 0.0
2014-Sep-08 03:32N 44°18' E 008°29'0 0.0
2014-Sep-08 02:29N 44°18' E 008°29'0 0.0
2014-Sep-08 01:14N 44°18' E 008°29'0 0.0
2014-Sep-07 23:17N 44°18' E 008°29'0 0.0
2014-Sep-07 22:26N 44°18' E 008°29'0 0.0
2014-Sep-07 20:08N 44°18' E 008°29'0 0.0
2014-Sep-07 19:32N 44°18' E 008°29'0 0.0
2014-Sep-07 18:05N 44°18' E 008°29'0 0.0
2014-Sep-07 14:14N 44°18' E 008°29'0 0.0
2014-Sep-07 13:08N 44°18' E 008°29'0 0.0
2014-Sep-07 12:32N 44°18' E 008°29'0 0.0
2014-Sep-07 11:26N 44°18' E 008°29'0 0.0
2014-Sep-07 10:17N 44°18' E 008°29'0 0.0
2014-Sep-07 04:32N 44°18' E 008°29'0 0.0
2014-Sep-07 03:32N 44°18' E 008°29'0 0.0
2014-Sep-07 02:29N 44°18' E 008°29'0 0.0
2014-Sep-07 01:29N 44°18' E 008°29'0 0.0
2014-Sep-07 00:29N 44°18' E 008°29'  
Track history (hours):
 
Tides and Currents Weather Stations Pressure Air Temp Water Temp Dewpoint Dewpoint Depression Visibility Wind Speed Wind Dir Waves Ship Positions

Capo Vado

Last reported at 2014-Sep-17 00:19 UTC. Time now 2014-Sep-17 01:32 UTC.
Position N 44°18' E 008°29'.

Length 30 m.

Type: Tug. MMSI: 247228400.

Date/timePositionNaut miles runAvg speedWind from/ knotsBaromVisibWave heightAir tempDewpointWater temp
2014-Sep-17 00:19N 44°18' E 008°29'0 0.0
2014-Sep-16 23:16N 44°18' E 008°29'0 0.0
2014-Sep-16 22:22N 44°18' E 008°29'0 0.0
2014-Sep-16 19:25N 44°18' E 008°29'0 0.0
2014-Sep-16 18:25N 44°18' E 008°29'0 0.0
2014-Sep-16 17:19N 44°18' E 008°29'0 0.0
2014-Sep-16 15:22N 44°18' E 008°29'0 0.0
2014-Sep-16 14:22N 44°18' E 008°29'0 0.0
2014-Sep-16 11:28N 44°18' E 008°29'0 0.0
2014-Sep-16 10:31N 44°18' E 008°29'0 0.0
2014-Sep-16 07:10N 44°18' E 008°29'0 0.0
2014-Sep-16 06:28N 44°18' E 008°29'0 0.0
2014-Sep-16 03:31N 44°18' E 008°29'0 0.0
2014-Sep-16 02:16N 44°18' E 008°29'0 0.0
2014-Sep-16 01:28N 44°18' E 008°29'0 0.0
2014-Sep-16 00:31N 44°18' E 008°29'0 0.0
2014-Sep-15 23:22N 44°18' E 008°29'0 0.0
2014-Sep-15 22:31N 44°18' E 008°29'0 0.0
2014-Sep-15 19:31N 44°18' E 008°29'0 0.0
2014-Sep-15 18:19N 44°18' E 008°29'0 0.0
2014-Sep-15 09:25N 44°18' E 008°29'0 0.0
2014-Sep-15 08:29N 44°18' E 008°29'2 2.0
2014-Sep-15 07:14N 44°16' E 008°28'1 1.0
2014-Sep-15 06:29N 44°16' E 008°29'3 2.9
2014-Sep-15 05:33N 44°19' E 008°31'0 0.4
2014-Sep-15 04:28N 44°19' E 008°30'1 0.9
2014-Sep-15 03:27N 44°18' E 008°29'0 0.0
2014-Sep-15 02:30N 44°18' E 008°29'0 0.0
2014-Sep-15 01:33N 44°18' E 008°29'0 0.0
2014-Sep-15 00:33N 44°18' E 008°29'0 0.0
2014-Sep-14 23:30N 44°18' E 008°29'0 0.0
2014-Sep-14 22:24N 44°18' E 008°29'0 0.0
2014-Sep-14 19:15N 44°18' E 008°29'0 0.0
2014-Sep-14 18:24N 44°18' E 008°29'0 0.0
2014-Sep-14 17:21N 44°18' E 008°29'0 0.0
2014-Sep-14 15:12N 44°18' E 008°29'0 0.0
2014-Sep-14 14:33N 44°18' E 008°29'0 0.0
2014-Sep-14 11:30N 44°18' E 008°29'0 0.0
2014-Sep-14 07:33N 44°18' E 008°29'0 0.0
2014-Sep-14 04:06N 44°18' E 008°29'0 0.0
2014-Sep-14 02:33N 44°18' E 008°29'0 0.0
2014-Sep-14 01:21N 44°18' E 008°29'0 0.0
2014-Sep-13 16:09N 44°18' E 008°29'0 0.0
2014-Sep-13 15:30N 44°18' E 008°29'0 0.0
2014-Sep-13 07:21N 44°18' E 008°29'0 0.0
2014-Sep-13 03:15N 44°18' E 008°29'0 0.0
2014-Sep-13 02:30N 44°18' E 008°29'0 0.0
2014-Sep-13 01:21N 44°18' E 008°29'0 0.0
2014-Sep-13 00:30N 44°18' E 008°29'0 0.0
2014-Sep-12 23:21N 44°18' E 008°29'1 0.1
2014-Sep-12 13:19N 44°19' E 008°30'3 2.7
2014-Sep-12 12:14N 44°17' E 008°28'1 1.5
2014-Sep-12 11:32N 44°17' E 008°29'1 0.3
2014-Sep-12 07:08N 44°18' E 008°29'1 0.4
2014-Sep-12 05:16N 44°19' E 008°30'1 0.3
2014-Sep-12 02:26N 44°18' E 008°29'0 0.0
2014-Sep-12 01:26N 44°18' E 008°29'0 0.0
2014-Sep-12 00:26N 44°18' E 008°29'0 0.0
2014-Sep-11 23:20N 44°18' E 008°29'0 0.0
2014-Sep-11 22:32N 44°18' E 008°29'0 0.0
2014-Sep-11 19:26N 44°18' E 008°29'0 0.0
2014-Sep-11 18:32N 44°18' E 008°29'0 0.0
2014-Sep-11 15:20N 44°18' E 008°29'0 0.0
2014-Sep-11 14:14N 44°18' E 008°29'0 0.0
2014-Sep-11 11:32N 44°18' E 008°29'0 0.0
2014-Sep-11 10:32N 44°18' E 008°29'1 0.3
2014-Sep-11 07:33N 44°19' E 008°30'3 2.8
2014-Sep-11 06:26N 44°16' E 008°28'2 0.5
2014-Sep-11 01:29N 44°18' E 008°29'0 0.0
2014-Sep-11 00:23N 44°18' E 008°29'0 0.0
2014-Sep-10 23:29N 44°18' E 008°29'0 0.0
2014-Sep-10 22:29N 44°18' E 008°29'0 0.0
2014-Sep-10 19:14N 44°18' E 008°29'0 0.0
2014-Sep-10 07:29N 44°18' E 008°29'0 0.0
2014-Sep-10 03:29N 44°18' E 008°29'0 0.0
2014-Sep-10 02:29N 44°18' E 008°29'0 0.0
2014-Sep-10 01:11N 44°18' E 008°29'0 0.0
2014-Sep-10 00:29N 44°18' E 008°29'0 0.0
2014-Sep-09 19:23N 44°18' E 008°29'0 0.0
2014-Sep-09 18:17N 44°18' E 008°29'0 0.0
2014-Sep-09 11:11N 44°18' E 008°29'0 0.0
2014-Sep-09 10:29N 44°18' E 008°29'0 0.0
2014-Sep-09 08:05N 44°18' E 008°29'0 0.0
2014-Sep-09 07:08N 44°18' E 008°29'0 0.0
2014-Sep-09 03:29N 44°18' E 008°29'0 0.0
2014-Sep-09 02:23N 44°18' E 008°29'0 0.0
2014-Sep-09 01:11N 44°18' E 008°29'0 0.0
2014-Sep-09 00:29N 44°18' E 008°29'0 0.0
2014-Sep-08 23:32N 44°18' E 008°29'0 0.0
2014-Sep-08 22:20N 44°18' E 008°29'0 0.0
2014-Sep-08 20:32N 44°18' E 008°29'0 0.0
2014-Sep-08 19:32N 44°18' E 008°29'0 0.0
2014-Sep-08 18:05N 44°18' E 008°29'0 0.0
2014-Sep-08 16:17N 44°18' E 008°29'0 0.0
2014-Sep-08 15:11N 44°18' E 008°29'0 0.0
2014-Sep-08 14:29N 44°18' E 008°29'0 0.0
2014-Sep-08 11:17N 44°18' E 008°29'0 0.0
2014-Sep-08 06:08N 44°18' E 008°29'0 0.0
2014-Sep-08 03:32N 44°18' E 008°29'0 0.0
2014-Sep-08 02:29N 44°18' E 008°29'0 0.0
2014-Sep-08 01:14N 44°18' E 008°29'0 0.0
2014-Sep-07 23:17N 44°18' E 008°29'0 0.0
2014-Sep-07 22:26N 44°18' E 008°29'0 0.0
2014-Sep-07 20:08N 44°18' E 008°29'0 0.0
2014-Sep-07 19:32N 44°18' E 008°29'0 0.0
2014-Sep-07 18:05N 44°18' E 008°29'0 0.0
2014-Sep-07 14:14N 44°18' E 008°29'0 0.0
2014-Sep-07 13:08N 44°18' E 008°29'0 0.0
2014-Sep-07 12:32N 44°18' E 008°29'0 0.0
2014-Sep-07 11:26N 44°18' E 008°29'0 0.0
2014-Sep-07 10:17N 44°18' E 008°29'0 0.0
2014-Sep-07 04:32N 44°18' E 008°29'0 0.0
2014-Sep-07 03:32N 44°18' E 008°29'0 0.0
2014-Sep-07 02:29N 44°18' E 008°29'0 0.0
2014-Sep-07 01:29N 44°18' E 008°29'0 0.0
2014-Sep-07 00:29N 44°18' E 008°29'  

Dump ship's entire track history